createdAt,value
2022-10-08T00:00:06.154Z,1010.9
2022-10-08T00:01:05.150Z,1010.9
2022-10-08T00:02:05.211Z,1010.9
2022-10-08T00:03:05.157Z,1010.9
2022-10-08T00:04:05.205Z,1010.8
2022-10-08T00:05:05.157Z,1010.8
2022-10-08T00:06:05.157Z,1010.8
2022-10-08T00:07:05.154Z,1010.8
2022-10-08T00:08:05.181Z,1010.8
2022-10-08T00:09:05.157Z,1010.8
2022-10-08T00:10:05.150Z,1010.9
2022-10-08T00:11:05.153Z,1010.9
2022-10-08T00:13:05.163Z,1010.8
2022-10-08T00:14:05.174Z,1010.8
2022-10-08T00:15:05.147Z,1010.8
2022-10-08T00:16:05.220Z,1010.8
2022-10-08T00:17:05.180Z,1010.8
2022-10-08T00:18:05.155Z,1010.8
2022-10-08T00:20:05.161Z,1010.8
2022-10-08T00:21:05.148Z,1010.8
2022-10-08T00:22:05.156Z,1010.8
2022-10-08T00:23:05.166Z,1010.8
2022-10-08T00:24:05.148Z,1010.8
2022-10-08T00:25:05.167Z,1010.8
2022-10-08T00:26:05.155Z,1010.8
2022-10-08T00:27:05.157Z,1010.8
2022-10-08T00:28:05.193Z,1010.8
2022-10-08T00:29:05.157Z,1010.8
2022-10-08T00:30:05.152Z,1010.7
2022-10-08T00:31:05.205Z,1010.8
2022-10-08T00:32:05.145Z,1010.7
2022-10-08T00:34:05.155Z,1010.7
2022-10-08T00:35:05.161Z,1010.7
2022-10-08T00:36:05.163Z,1010.7
2022-10-08T00:37:05.158Z,1010.7
2022-10-08T00:38:05.173Z,1010.7
2022-10-08T00:39:05.159Z,1010.7
2022-10-08T00:41:05.160Z,1010.7
2022-10-08T00:42:05.154Z,1010.7
2022-10-08T00:43:05.153Z,1010.7
2022-10-08T00:44:05.155Z,1010.7
2022-10-08T00:45:05.160Z,1010.7
2022-10-08T00:46:05.244Z,1010.7
2022-10-08T00:47:05.174Z,1010.7
2022-10-08T00:48:05.178Z,1010.7
2022-10-08T00:49:05.151Z,1010.7
2022-10-08T00:50:05.157Z,1010.7
2022-10-08T00:51:05.165Z,1010.7
2022-10-08T00:52:05.151Z,1010.7
2022-10-08T00:53:05.152Z,1010.6
2022-10-08T00:54:05.175Z,1010.6
2022-10-08T00:55:05.151Z,1010.6
2022-10-08T00:56:05.154Z,1010.7
2022-10-08T00:57:05.160Z,1010.6
2022-10-08T00:58:05.159Z,1010.6
2022-10-08T00:59:05.148Z,1010.6
2022-10-08T01:01:05.221Z,1010.6
2022-10-08T01:02:05.211Z,1010.6
2022-10-08T01:03:05.160Z,1010.6
2022-10-08T01:04:05.151Z,1010.6
2022-10-08T01:05:05.157Z,1010.6
2022-10-08T01:06:05.167Z,1010.6
2022-10-08T01:07:05.156Z,1010.6
2022-10-08T01:08:05.160Z,1010.6
2022-10-08T01:09:05.162Z,1010.6
2022-10-08T01:10:05.159Z,1010.6
2022-10-08T01:11:05.152Z,1010.5
2022-10-08T01:13:05.149Z,1010.6
2022-10-08T01:14:05.156Z,1010.5
2022-10-08T01:15:05.151Z,1010.5
2022-10-08T01:16:05.241Z,1010.5
2022-10-08T01:17:05.158Z,1010.5
2022-10-08T01:18:05.163Z,1010.5
2022-10-08T01:19:05.181Z,1010.5
2022-10-08T01:20:05.152Z,1010.5
2022-10-08T01:21:05.176Z,1010.5
2022-10-08T01:22:05.169Z,1010.5
2022-10-08T01:23:05.169Z,1010.5
2022-10-08T01:24:05.159Z,1010.5
2022-10-08T01:25:05.161Z,1010.5
2022-10-08T01:26:05.163Z,1010.5
2022-10-08T01:27:05.160Z,1010.4
2022-10-08T01:28:05.186Z,1010.4
2022-10-08T01:29:05.157Z,1010.4
2022-10-08T01:30:05.169Z,1010.4
2022-10-08T01:31:05.258Z,1010.4
2022-10-08T01:32:05.551Z,1010.4
2022-10-08T01:34:05.179Z,1010.4
2022-10-08T01:35:05.162Z,1010.4
2022-10-08T01:36:05.171Z,1010.4
2022-10-08T01:37:05.151Z,1010.4
2022-10-08T01:38:05.159Z,1010.4
2022-10-08T01:39:05.161Z,1010.5
2022-10-08T01:40:05.193Z,1010.5
2022-10-08T01:41:05.159Z,1010.4
2022-10-08T01:42:05.161Z,1010.4
2022-10-08T01:43:05.163Z,1010.5
2022-10-08T01:44:05.158Z,1010.5
2022-10-08T01:46:05.217Z,1010.5
2022-10-08T01:47:05.165Z,1010.5
2022-10-08T01:48:05.153Z,1010.5
2022-10-08T01:49:05.160Z,1010.4
2022-10-08T01:50:05.185Z,1010.4
2022-10-08T01:51:05.151Z,1010.4
2022-10-08T01:52:05.163Z,1010.4
2022-10-08T01:53:05.167Z,1010.4
2022-10-08T01:54:05.152Z,1010.5
2022-10-08T01:55:05.166Z,1010.4
2022-10-08T01:56:07.261Z,1010.4
2022-10-08T01:57:05.165Z,1010.4
2022-10-08T01:58:05.161Z,1010.4
2022-10-08T01:59:05.150Z,1010.3
2022-10-08T01:59:59.652Z,1010.4
2022-10-08T02:01:05.210Z,1010.3
2022-10-08T02:02:05.207Z,1010.4
2022-10-08T02:03:05.154Z,1010.4
2022-10-08T02:04:05.162Z,1010.4
2022-10-08T02:05:05.155Z,1010.3
2022-10-08T02:07:05.164Z,1010.4
2022-10-08T02:08:05.152Z,1010.4
2022-10-08T02:09:05.169Z,1010.3
2022-10-08T02:10:05.162Z,1010.3
2022-10-08T02:11:05.159Z,1010.3
2022-10-08T02:12:05.166Z,1010.3
2022-10-08T02:13:05.150Z,1010.3
2022-10-08T02:14:05.160Z,1010.3
2022-10-08T02:15:05.161Z,1010.3
2022-10-08T02:16:05.214Z,1010.3
2022-10-08T02:17:05.161Z,1010.4
2022-10-08T02:18:05.168Z,1010.3
2022-10-08T02:19:05.150Z,1010.3
2022-10-08T02:20:05.167Z,1010.3
2022-10-08T02:21:05.189Z,1010.3
2022-10-08T02:22:05.160Z,1010.3
2022-10-08T02:23:05.168Z,1010.4
2022-10-08T02:24:05.154Z,1010.3
2022-10-08T02:25:05.163Z,1010.3
2022-10-08T02:26:05.171Z,1010.3
2022-10-08T02:28:05.213Z,1010.3
2022-10-08T02:29:05.154Z,1010.3
2022-10-08T02:31:05.161Z,1010.3
2022-10-08T02:32:05.228Z,1010.3
2022-10-08T02:33:05.158Z,1010.3
2022-10-08T02:34:05.165Z,1010.3
2022-10-08T02:35:05.157Z,1010.2
2022-10-08T02:36:05.154Z,1010.3
2022-10-08T02:37:05.151Z,1010.3
2022-10-08T02:38:05.187Z,1010.4
2022-10-08T02:39:05.161Z,1010.4
2022-10-08T02:40:05.202Z,1010.4
2022-10-08T02:41:05.160Z,1010.4
2022-10-08T02:42:05.162Z,1010.4
2022-10-08T02:43:05.150Z,1010.5
2022-10-08T02:44:05.162Z,1010.4
2022-10-08T02:45:05.164Z,1010.4
2022-10-08T02:46:05.212Z,1010.4
2022-10-08T02:47:05.161Z,1010.4
2022-10-08T02:49:05.155Z,1010.4
2022-10-08T02:50:05.156Z,1010.5
2022-10-08T02:51:05.150Z,1010.5
2022-10-08T02:52:05.181Z,1010.5
2022-10-08T02:53:05.162Z,1010.5
2022-10-08T02:54:05.153Z,1010.4
2022-10-08T02:55:05.157Z,1010.4
2022-10-08T02:56:05.167Z,1010.4
2022-10-08T02:57:09.417Z,1010.5
2022-10-08T02:58:05.538Z,1010.5
2022-10-08T02:59:05.160Z,1010.5
2022-10-08T03:00:05.152Z,1010.5
2022-10-08T03:01:05.238Z,1010.5
2022-10-08T03:02:05.334Z,1010.5
2022-10-08T03:03:05.168Z,1010.5
2022-10-08T03:04:05.162Z,1010.5
2022-10-08T03:05:05.161Z,1010.6
2022-10-08T03:06:05.151Z,1010.5
2022-10-08T03:07:05.169Z,1010.6
2022-10-08T03:08:05.160Z,1010.6
2022-10-08T03:10:05.160Z,1010.6
2022-10-08T03:11:05.162Z,1010.6
2022-10-08T03:12:05.162Z,1010.6
2022-10-08T03:13:05.179Z,1010.7
2022-10-08T03:14:05.157Z,1010.7
2022-10-08T03:15:05.157Z,1010.7
2022-10-08T03:16:05.160Z,1010.7
2022-10-08T03:17:05.227Z,1010.7
2022-10-08T03:18:05.158Z,1010.7
2022-10-08T03:19:05.166Z,1010.7
2022-10-08T03:20:05.158Z,1010.7
2022-10-08T03:21:05.165Z,1010.8
2022-10-08T03:23:05.187Z,1010.7
2022-10-08T03:24:05.189Z,1010.8
2022-10-08T03:25:05.155Z,1010.7
2022-10-08T03:26:05.156Z,1010.8
2022-10-08T03:27:05.163Z,1010.8
2022-10-08T03:28:05.210Z,1010.7
2022-10-08T03:29:05.160Z,1010.7
2022-10-08T03:31:05.235Z,1010.8
2022-10-08T03:32:05.163Z,1010.8
2022-10-08T03:33:05.164Z,1010.7
2022-10-08T03:34:05.162Z,1010.8
2022-10-08T03:35:05.160Z,1010.7
2022-10-08T03:36:05.173Z,1010.8
2022-10-08T03:37:05.154Z,1010.7
2022-10-08T03:38:05.192Z,1010.7
2022-10-08T03:39:05.170Z,1010.7
2022-10-08T03:40:05.155Z,1010.7
2022-10-08T03:41:05.163Z,1010.8
2022-10-08T03:43:05.169Z,1010.8
2022-10-08T03:44:05.175Z,1010.8
2022-10-08T03:45:05.166Z,1010.8
2022-10-08T03:46:05.244Z,1010.8
2022-10-08T03:47:05.163Z,1010.8
2022-10-08T03:48:05.164Z,1010.8
2022-10-08T03:49:05.198Z,1010.8
2022-10-08T03:50:05.237Z,1010.8
2022-10-08T03:51:05.166Z,1010.8
2022-10-08T03:52:05.162Z,1010.8
2022-10-08T03:53:05.178Z,1010.8
2022-10-08T03:54:05.242Z,1010.8
2022-10-08T03:55:05.164Z,1010.8
2022-10-08T03:56:05.166Z,1010.8
2022-10-08T03:57:05.161Z,1010.8
2022-10-08T03:58:05.160Z,1010.8
2022-10-08T03:59:05.165Z,1010.8
2022-10-08T04:00:05.160Z,1010.8
2022-10-08T04:01:05.190Z,1010.8
2022-10-08T04:02:05.152Z,1010.8
2022-10-08T04:03:05.249Z,1010.8
2022-10-08T04:04:05.160Z,1010.9
2022-10-08T04:05:05.156Z,1010.9
2022-10-08T04:06:05.194Z,1010.9
2022-10-08T04:07:05.159Z,1010.9
2022-10-08T04:09:05.160Z,1010.9
2022-10-08T04:10:05.155Z,1010.8
2022-10-08T04:11:05.161Z,1010.8
2022-10-08T04:12:05.165Z,1010.8
2022-10-08T04:13:05.155Z,1010.8
2022-10-08T04:14:05.161Z,1010.8
2022-10-08T04:15:05.164Z,1010.9
2022-10-08T04:16:05.235Z,1010.8
2022-10-08T04:17:05.162Z,1010.8
2022-10-08T04:18:05.165Z,1010.8
2022-10-08T04:19:05.179Z,1010.8
2022-10-08T04:20:05.167Z,1010.8
2022-10-08T04:21:05.184Z,1010.8
2022-10-08T04:22:05.165Z,1010.9
2022-10-08T04:23:05.160Z,1010.8
2022-10-08T04:24:05.158Z,1010.9
2022-10-08T04:25:05.194Z,1010.9
2022-10-08T04:26:05.159Z,1010.8
2022-10-08T04:27:05.165Z,1010.9
2022-10-08T04:28:05.294Z,1011
2022-10-08T04:29:05.165Z,1010.9
2022-10-08T04:30:05.190Z,1011
2022-10-08T04:31:05.226Z,1011
2022-10-08T04:32:05.174Z,1010.9
2022-10-08T04:33:05.165Z,1011
2022-10-08T04:34:05.162Z,1010.9
2022-10-08T04:35:05.159Z,1011
2022-10-08T04:37:05.161Z,1011
2022-10-08T04:38:05.191Z,1011
2022-10-08T04:39:05.166Z,1011
2022-10-08T04:40:05.192Z,1010.9
2022-10-08T04:41:05.179Z,1011
2022-10-08T04:43:05.162Z,1011
2022-10-08T04:44:05.160Z,1011
2022-10-08T04:45:05.163Z,1010.9
2022-10-08T04:46:05.252Z,1011
2022-10-08T04:47:05.157Z,1011
2022-10-08T04:48:05.226Z,1011
2022-10-08T04:49:05.168Z,1011.1
2022-10-08T04:50:05.157Z,1011.1
2022-10-08T04:51:10.017Z,1011.1
2022-10-08T04:52:05.170Z,1011.1
2022-10-08T04:53:05.166Z,1011.1
2022-10-08T04:54:05.161Z,1011.1
2022-10-08T04:55:05.237Z,1011.1
2022-10-08T04:56:05.197Z,1011.2
2022-10-08T04:58:05.223Z,1011.1
2022-10-08T04:59:05.172Z,1011.1
2022-10-08T05:00:18.071Z,1011.2
2022-10-08T05:01:05.167Z,1011.2
2022-10-08T05:02:05.299Z,1011.2
2022-10-08T05:03:05.221Z,1011.2
2022-10-08T05:04:05.162Z,1011.2
2022-10-08T05:06:05.171Z,1011.2
2022-10-08T05:08:05.163Z,1011.2
2022-10-08T05:09:05.163Z,1011.3
2022-10-08T05:10:05.160Z,1011.3
2022-10-08T05:12:05.217Z,1011.2
2022-10-08T05:13:05.160Z,1011.3
2022-10-08T05:14:05.166Z,1011.3
2022-10-08T05:15:05.205Z,1011.2
2022-10-08T05:16:05.255Z,1011.2
2022-10-08T05:17:05.219Z,1011.2
2022-10-08T05:18:05.167Z,1011.2
2022-10-08T05:19:05.160Z,1011.3
2022-10-08T05:20:05.164Z,1011.2
2022-10-08T05:21:05.161Z,1011.3
2022-10-08T05:22:05.168Z,1011.2
2022-10-08T05:23:05.177Z,1011.3
2022-10-08T05:24:05.160Z,1011.3
2022-10-08T05:25:05.177Z,1011.3
2022-10-08T05:27:05.194Z,1011.3
2022-10-08T05:28:05.200Z,1011.4
2022-10-08T05:29:05.169Z,1011.4
2022-10-08T05:30:05.164Z,1011.4
2022-10-08T05:31:05.213Z,1011.4
2022-10-08T05:32:05.174Z,1011.4
2022-10-08T05:33:05.181Z,1011.4
2022-10-08T05:34:05.162Z,1011.4
2022-10-08T05:35:05.163Z,1011.4
2022-10-08T05:36:05.165Z,1011.4
2022-10-08T05:37:05.168Z,1011.4
2022-10-08T05:38:05.171Z,1011.5
2022-10-08T05:39:05.170Z,1011.5
2022-10-08T05:40:05.175Z,1011.5
2022-10-08T05:41:05.166Z,1011.5
2022-10-08T05:42:05.171Z,1011.5
2022-10-08T05:43:05.174Z,1011.5
2022-10-08T05:44:05.177Z,1011.5
2022-10-08T05:46:05.228Z,1011.5
2022-10-08T05:47:05.163Z,1011.6
2022-10-08T05:48:05.172Z,1011.6
2022-10-08T05:49:05.170Z,1011.6
2022-10-08T05:50:05.187Z,1011.6
2022-10-08T05:51:05.177Z,1011.6
2022-10-08T05:52:05.170Z,1011.6
2022-10-08T05:53:09.085Z,1011.6
2022-10-08T05:54:05.176Z,1011.6
2022-10-08T05:55:05.565Z,1011.6
2022-10-08T05:56:05.164Z,1011.6
2022-10-08T05:57:05.181Z,1011.7
2022-10-08T05:58:05.190Z,1011.7
2022-10-08T05:59:05.170Z,1011.7
2022-10-08T06:00:05.185Z,1011.7
2022-10-08T06:01:05.173Z,1011.7
2022-10-08T06:02:05.175Z,1011.7
2022-10-08T06:03:05.273Z,1011.7
2022-10-08T06:05:05.283Z,1011.7
2022-10-08T06:06:05.169Z,1011.8
2022-10-08T06:07:05.175Z,1011.7
2022-10-08T06:08:05.167Z,1011.8
2022-10-08T06:09:05.167Z,1011.8
2022-10-08T06:10:05.163Z,1011.8
2022-10-08T06:11:05.174Z,1011.9
2022-10-08T06:12:06.039Z,1011.8
2022-10-08T06:13:05.174Z,1011.9
2022-10-08T06:14:05.174Z,1011.9
2022-10-08T06:16:05.253Z,1011.9
2022-10-08T06:17:05.187Z,1012
2022-10-08T06:18:05.175Z,1012
2022-10-08T06:19:05.170Z,1012
2022-10-08T06:20:05.229Z,1011.9
2022-10-08T06:21:05.168Z,1012
2022-10-08T06:22:05.241Z,1012
2022-10-08T06:23:05.170Z,1012.1
2022-10-08T06:24:05.181Z,1012.1
2022-10-08T06:25:05.170Z,1012.1
2022-10-08T06:26:05.181Z,1012.1
2022-10-08T06:27:05.178Z,1012.2
2022-10-08T06:28:05.207Z,1012.1
2022-10-08T06:29:05.205Z,1012.2
2022-10-08T06:30:05.172Z,1012.2
2022-10-08T06:31:05.230Z,1012.2
2022-10-08T06:32:05.166Z,1012.2
2022-10-08T06:33:05.177Z,1012.3
2022-10-08T06:34:05.246Z,1012.2
2022-10-08T06:35:05.174Z,1012.3
2022-10-08T06:36:05.172Z,1012.3
2022-10-08T06:37:05.175Z,1012.3
2022-10-08T06:39:05.177Z,1012.3
2022-10-08T06:40:05.172Z,1012.3
2022-10-08T06:41:05.179Z,1012.4
2022-10-08T06:42:05.186Z,1012.4
2022-10-08T06:43:05.167Z,1012.4
2022-10-08T06:44:05.162Z,1012.4
2022-10-08T06:45:05.174Z,1012.5
2022-10-08T06:47:05.205Z,1012.5
2022-10-08T06:48:05.164Z,1012.5
2022-10-08T06:49:05.178Z,1012.5
2022-10-08T06:50:05.237Z,1012.5
2022-10-08T06:51:05.172Z,1012.6
2022-10-08T06:52:05.181Z,1012.5
2022-10-08T06:53:05.185Z,1012.6
2022-10-08T06:54:07.901Z,1012.6
2022-10-08T06:55:05.167Z,1012.6
2022-10-08T06:56:05.175Z,1012.6
2022-10-08T06:57:05.173Z,1012.6
2022-10-08T06:58:05.175Z,1012.6
2022-10-08T07:00:05.195Z,1012.7
2022-10-08T07:01:05.256Z,1012.7
2022-10-08T07:02:05.305Z,1012.8
2022-10-08T07:03:05.182Z,1012.8
2022-10-08T07:04:05.192Z,1012.8
2022-10-08T07:05:05.179Z,1012.8
2022-10-08T07:06:05.174Z,1012.8
2022-10-08T07:08:05.181Z,1012.9
2022-10-08T07:09:05.193Z,1012.9
2022-10-08T07:10:05.177Z,1012.9
2022-10-08T07:11:05.174Z,1012.9
2022-10-08T07:12:05.174Z,1012.9
2022-10-08T07:13:05.172Z,1013
2022-10-08T07:14:05.168Z,1013
2022-10-08T07:15:05.179Z,1013
2022-10-08T07:16:05.364Z,1013
2022-10-08T07:17:05.175Z,1013
2022-10-08T07:18:05.175Z,1013
2022-10-08T07:19:05.179Z,1013.1
2022-10-08T07:21:05.208Z,1013.1
2022-10-08T07:22:05.169Z,1013.1
2022-10-08T07:23:05.190Z,1013.1
2022-10-08T07:24:05.172Z,1013.1
2022-10-08T07:25:05.171Z,1013.1
2022-10-08T07:26:05.189Z,1013.2
2022-10-08T07:27:05.164Z,1013.1
2022-10-08T07:28:05.227Z,1013.1
2022-10-08T07:29:05.246Z,1013.1
2022-10-08T07:30:05.165Z,1013.1
2022-10-08T07:31:05.228Z,1013.2
2022-10-08T07:32:05.187Z,1013.2
2022-10-08T07:33:05.176Z,1013.1
2022-10-08T07:34:05.169Z,1013.2
2022-10-08T07:35:05.180Z,1013.2
2022-10-08T07:37:05.181Z,1013.2
2022-10-08T07:38:05.172Z,1013.2
2022-10-08T07:39:05.192Z,1013.3
2022-10-08T07:40:05.175Z,1013.3
2022-10-08T07:42:05.175Z,1013.3
2022-10-08T07:43:05.185Z,1013.3
2022-10-08T07:44:05.175Z,1013.3
2022-10-08T07:45:05.190Z,1013.4
2022-10-08T07:46:05.280Z,1013.3
2022-10-08T07:47:05.188Z,1013.3
2022-10-08T07:48:05.228Z,1013.4
2022-10-08T07:49:05.177Z,1013.4
2022-10-08T07:50:05.176Z,1013.4
2022-10-08T07:51:05.174Z,1013.4
2022-10-08T07:52:05.179Z,1013.4
2022-10-08T07:54:05.170Z,1013.4
2022-10-08T07:55:05.181Z,1013.4
2022-10-08T07:56:05.175Z,1013.5
2022-10-08T07:57:05.183Z,1013.5
2022-10-08T07:58:05.171Z,1013.5
2022-10-08T07:59:05.239Z,1013.5
2022-10-08T08:00:05.182Z,1013.6
2022-10-08T08:01:05.241Z,1013.6
2022-10-08T08:03:05.190Z,1013.6
2022-10-08T08:04:05.177Z,1013.7
2022-10-08T08:06:05.182Z,1013.6
2022-10-08T08:07:05.177Z,1013.7
2022-10-08T08:08:05.177Z,1013.6
2022-10-08T08:09:05.181Z,1013.7
2022-10-08T08:10:05.184Z,1013.7
2022-10-08T08:11:05.181Z,1013.7
2022-10-08T08:12:05.176Z,1013.7
2022-10-08T08:13:05.188Z,1013.7
2022-10-08T08:16:05.225Z,1013.8
2022-10-08T08:17:05.187Z,1013.8
2022-10-08T08:18:05.180Z,1013.8
2022-10-08T08:19:05.177Z,1013.8
2022-10-08T08:20:05.207Z,1013.8
2022-10-08T08:21:06.137Z,1013.9
2022-10-08T08:22:05.184Z,1013.9
2022-10-08T08:24:05.182Z,1013.9
2022-10-08T08:25:05.191Z,1013.9
2022-10-08T08:26:05.185Z,1013.9
2022-10-08T08:27:05.174Z,1013.9
2022-10-08T08:28:05.236Z,1013.9
2022-10-08T08:29:05.192Z,1013.9
2022-10-08T08:30:05.178Z,1014
2022-10-08T08:31:05.206Z,1013.9
2022-10-08T08:32:05.226Z,1014
2022-10-08T08:33:05.201Z,1014
2022-10-08T08:34:05.184Z,1014
2022-10-08T08:35:05.191Z,1014
2022-10-08T08:36:05.246Z,1014.1
2022-10-08T08:37:05.197Z,1014
2022-10-08T08:38:05.188Z,1014
2022-10-08T08:39:05.186Z,1014.1
2022-10-08T08:40:05.185Z,1014.1
2022-10-08T08:41:08.129Z,1014
2022-10-08T08:42:05.186Z,1014.1
2022-10-08T08:43:05.175Z,1014.1
2022-10-08T08:44:05.183Z,1014.1
2022-10-08T08:45:05.179Z,1014.1
2022-10-08T08:46:05.226Z,1014.1
2022-10-08T08:47:05.176Z,1014.2
2022-10-08T08:48:05.179Z,1014.1
2022-10-08T08:49:05.198Z,1014.1
2022-10-08T08:50:05.179Z,1014.2
2022-10-08T08:51:05.186Z,1014.2
2022-10-08T08:52:05.195Z,1014.2
2022-10-08T08:53:05.181Z,1014.2
2022-10-08T08:54:05.194Z,1014.2
2022-10-08T08:55:05.182Z,1014.2
2022-10-08T08:56:05.254Z,1014.3
2022-10-08T08:58:10.043Z,1014.3
2022-10-08T08:59:05.226Z,1014.2
2022-10-08T09:00:05.217Z,1014.3
2022-10-08T09:01:05.289Z,1014.2
2022-10-08T09:02:05.180Z,1014.3
2022-10-08T09:03:05.187Z,1014.2
2022-10-08T09:04:05.345Z,1014.2
2022-10-08T09:05:05.257Z,1014.2
2022-10-08T09:06:05.190Z,1014.2
2022-10-08T09:08:05.203Z,1014.2
2022-10-08T09:09:05.193Z,1014.2
2022-10-08T09:10:05.213Z,1014.2
2022-10-08T09:11:05.195Z,1014.3
2022-10-08T09:12:05.189Z,1014.3
2022-10-08T09:13:05.203Z,1014.3
2022-10-08T09:14:05.197Z,1014.3
2022-10-08T09:15:05.193Z,1014.3
2022-10-08T09:16:05.193Z,1014.4
2022-10-08T09:17:05.316Z,1014.3
2022-10-08T09:18:05.189Z,1014.3
2022-10-08T09:19:05.198Z,1014.4
2022-10-08T09:20:05.213Z,1014.4
2022-10-08T09:22:05.201Z,1014.4
2022-10-08T09:23:05.216Z,1014.4
2022-10-08T09:24:05.201Z,1014.5
2022-10-08T09:25:05.190Z,1014.4
2022-10-08T09:26:05.194Z,1014.5
2022-10-08T09:27:05.193Z,1014.5
2022-10-08T09:28:05.278Z,1014.4
2022-10-08T09:29:05.203Z,1014.5
2022-10-08T09:30:05.228Z,1014.5
2022-10-08T09:31:08.836Z,1014.5
2022-10-08T09:32:05.197Z,1014.5
2022-10-08T09:33:05.265Z,1014.6
2022-10-08T09:34:05.214Z,1014.6
2022-10-08T09:35:05.223Z,1014.6
2022-10-08T09:36:05.202Z,1014.6
2022-10-08T09:37:05.223Z,1014.7
2022-10-08T09:38:06.273Z,1014.6
2022-10-08T09:39:05.201Z,1014.6
2022-10-08T09:40:05.204Z,1014.6
2022-10-08T09:41:05.208Z,1014.6
2022-10-08T09:42:05.209Z,1014.6
2022-10-08T09:43:05.200Z,1014.6
2022-10-08T09:44:05.203Z,1014.6
2022-10-08T09:45:05.203Z,1014.6
2022-10-08T09:46:05.315Z,1014.6
2022-10-08T09:47:05.198Z,1014.7
2022-10-08T09:48:05.210Z,1014.7
2022-10-08T09:49:05.204Z,1014.7
2022-10-08T09:50:05.219Z,1014.7
2022-10-08T09:51:05.208Z,1014.8
2022-10-08T09:52:05.218Z,1014.7
2022-10-08T09:53:05.214Z,1014.7
2022-10-08T09:54:05.213Z,1014.7
2022-10-08T09:55:05.208Z,1014.8
2022-10-08T09:57:05.207Z,1014.7
2022-10-08T09:58:05.278Z,1014.7
2022-10-08T09:59:05.207Z,1014.7
2022-10-08T10:00:05.225Z,1014.7
2022-10-08T10:01:05.281Z,1014.8
2022-10-08T10:02:05.217Z,1014.8
2022-10-08T10:03:05.203Z,1014.9
2022-10-08T10:04:05.252Z,1014.9
2022-10-08T10:05:05.207Z,1014.9
2022-10-08T10:06:05.238Z,1014.9
2022-10-08T10:07:05.207Z,1014.9
2022-10-08T10:08:05.210Z,1014.9
2022-10-08T10:09:05.207Z,1014.9
2022-10-08T10:10:05.214Z,1014.9
2022-10-08T10:11:05.211Z,1014.9
2022-10-08T10:12:05.218Z,1014.9
2022-10-08T10:13:05.212Z,1014.9
2022-10-08T10:14:05.222Z,1014.8
2022-10-08T10:15:05.216Z,1014.8
2022-10-08T10:16:05.213Z,1014.9
2022-10-08T10:17:05.314Z,1014.8
2022-10-08T10:18:05.217Z,1014.9
2022-10-08T10:20:05.214Z,1014.8
2022-10-08T10:22:05.213Z,1014.9
2022-10-08T10:23:05.220Z,1014.9
2022-10-08T10:24:05.214Z,1014.9
2022-10-08T10:25:05.236Z,1014.9
2022-10-08T10:26:06.734Z,1014.9
2022-10-08T10:27:05.214Z,1014.9
2022-10-08T10:28:05.305Z,1015
2022-10-08T10:29:05.215Z,1015
2022-10-08T10:31:05.294Z,1015
2022-10-08T10:32:05.218Z,1015
2022-10-08T10:33:05.210Z,1015
2022-10-08T10:34:05.221Z,1015.1
2022-10-08T10:35:05.223Z,1015
2022-10-08T10:36:05.215Z,1015
2022-10-08T10:37:05.242Z,1015
2022-10-08T10:39:05.216Z,1014.9
2022-10-08T10:40:05.230Z,1015
2022-10-08T10:41:05.219Z,1015
2022-10-08T10:42:05.223Z,1015
2022-10-08T10:43:05.225Z,1015
2022-10-08T10:44:05.238Z,1015
2022-10-08T10:45:05.226Z,1015
2022-10-08T10:46:05.309Z,1015.1
2022-10-08T10:47:05.222Z,1015.1
2022-10-08T10:48:05.238Z,1015.1
2022-10-08T10:49:05.223Z,1015.1
2022-10-08T10:50:05.231Z,1015.1
2022-10-08T10:51:05.231Z,1015.1
2022-10-08T10:52:05.236Z,1015.1
2022-10-08T10:53:05.232Z,1015.2
2022-10-08T10:54:05.231Z,1015.1
2022-10-08T10:55:05.238Z,1015.1
2022-10-08T10:56:05.228Z,1015.2
2022-10-08T10:57:05.229Z,1015.2
2022-10-08T10:58:05.237Z,1015.2
2022-10-08T11:00:05.220Z,1015.1
2022-10-08T11:01:05.315Z,1015.2
2022-10-08T11:02:05.225Z,1015.1
2022-10-08T11:03:05.326Z,1015.1
2022-10-08T11:04:05.230Z,1015.1
2022-10-08T11:05:05.221Z,1015.2
2022-10-08T11:06:05.224Z,1015.2
2022-10-08T11:07:05.228Z,1015.2
2022-10-08T11:08:05.312Z,1015.2
2022-10-08T11:09:05.230Z,1015.2
2022-10-08T11:10:05.233Z,1015.1
2022-10-08T11:11:05.223Z,1015.2
2022-10-08T11:12:05.227Z,1015.2
2022-10-08T11:13:05.227Z,1015.2
2022-10-08T11:14:05.228Z,1015.2
2022-10-08T11:15:05.227Z,1015.2
2022-10-08T11:16:05.308Z,1015.2
2022-10-08T11:18:05.295Z,1015.1
2022-10-08T11:19:05.231Z,1015.2
2022-10-08T11:21:05.230Z,1015.2
2022-10-08T11:22:05.229Z,1015.2
2022-10-08T11:23:05.228Z,1015.2
2022-10-08T11:24:05.230Z,1015.2
2022-10-08T11:25:05.233Z,1015.2
2022-10-08T11:26:22.013Z,1015.1
2022-10-08T11:27:05.229Z,1015.1
2022-10-08T11:28:05.318Z,1015.1
2022-10-08T11:29:05.233Z,1015.2
2022-10-08T11:30:05.237Z,1015.2
2022-10-08T11:31:05.265Z,1015.2
2022-10-08T11:32:05.234Z,1015.2
2022-10-08T11:33:05.236Z,1015.2
2022-10-08T11:34:05.405Z,1015.2
2022-10-08T11:35:05.242Z,1015.3
2022-10-08T11:36:05.233Z,1015.3
2022-10-08T11:37:05.238Z,1015.3
2022-10-08T11:38:05.235Z,1015.3
2022-10-08T11:39:05.263Z,1015.2
2022-10-08T11:40:05.235Z,1015.2
2022-10-08T11:41:05.234Z,1015.2
2022-10-08T11:42:05.236Z,1015.2
2022-10-08T11:43:05.240Z,1015.2
2022-10-08T11:44:05.229Z,1015.2
2022-10-08T11:45:05.251Z,1015.1
2022-10-08T11:46:05.285Z,1015.1
2022-10-08T11:47:05.237Z,1015.2
2022-10-08T11:48:09.695Z,1015.2
2022-10-08T11:49:05.258Z,1015.1
2022-10-08T11:50:05.271Z,1015.2
2022-10-08T11:51:05.228Z,1015.2
2022-10-08T11:53:05.245Z,1015.2
2022-10-08T11:54:05.251Z,1015.2
2022-10-08T11:55:05.245Z,1015.2
2022-10-08T11:56:05.248Z,1015.3
2022-10-08T11:57:05.242Z,1015.2
2022-10-08T11:58:08.054Z,1015.2
2022-10-08T11:59:05.242Z,1015.2
2022-10-08T12:00:08.694Z,1015.2
2022-10-08T12:01:05.237Z,1015.2
2022-10-08T12:02:05.299Z,1015.2
2022-10-08T12:03:05.408Z,1015.2
2022-10-08T12:04:05.238Z,1015.2
2022-10-08T12:05:05.240Z,1015.2
2022-10-08T12:06:05.238Z,1015.2
2022-10-08T12:07:05.240Z,1015.2
2022-10-08T12:08:05.306Z,1015.2
2022-10-08T12:09:05.248Z,1015.2
2022-10-08T12:10:05.265Z,1015.1
2022-10-08T12:11:05.241Z,1015.1
2022-10-08T12:12:05.243Z,1015.2
2022-10-08T12:14:05.250Z,1015.1
2022-10-08T12:15:05.246Z,1015.2
2022-10-08T12:16:05.334Z,1015.3
2022-10-08T12:17:05.235Z,1015.3
2022-10-08T12:18:05.250Z,1015.2
2022-10-08T12:19:05.243Z,1015.3
2022-10-08T12:20:05.259Z,1015.3
2022-10-08T12:21:05.285Z,1015.3
2022-10-08T12:22:05.241Z,1015.3
2022-10-08T12:23:05.247Z,1015.3
2022-10-08T12:24:05.253Z,1015.3
2022-10-08T12:25:05.258Z,1015.4
2022-10-08T12:26:05.251Z,1015.3
2022-10-08T12:27:05.250Z,1015.3
2022-10-08T12:28:05.328Z,1015.3
2022-10-08T12:29:05.250Z,1015.3
2022-10-08T12:30:05.248Z,1015.3
2022-10-08T12:31:05.314Z,1015.3
2022-10-08T12:32:05.245Z,1015.3
2022-10-08T12:33:05.252Z,1015.3
2022-10-08T12:34:05.249Z,1015.3
2022-10-08T12:35:05.250Z,1015.3
2022-10-08T12:36:05.251Z,1015.3
2022-10-08T12:37:05.258Z,1015.3
2022-10-08T12:38:05.262Z,1015.3
2022-10-08T12:39:05.250Z,1015.3
2022-10-08T12:40:05.327Z,1015.3
2022-10-08T12:41:05.278Z,1015.3
2022-10-08T12:42:05.252Z,1015.3
2022-10-08T12:43:05.259Z,1015.3
2022-10-08T12:44:05.260Z,1015.3
2022-10-08T12:45:05.262Z,1015.3
2022-10-08T12:46:05.310Z,1015.3
2022-10-08T12:47:05.326Z,1015.3
2022-10-08T12:48:05.261Z,1015.4
2022-10-08T12:49:05.251Z,1015.3
2022-10-08T12:50:05.263Z,1015.3
2022-10-08T12:51:05.260Z,1015.3
2022-10-08T12:52:05.247Z,1015.3
2022-10-08T12:53:05.259Z,1015.3
2022-10-08T12:54:05.256Z,1015.3
2022-10-08T12:56:05.248Z,1015.4
2022-10-08T12:57:05.252Z,1015.4
2022-10-08T12:58:05.261Z,1015.4
2022-10-08T12:59:05.257Z,1015.4
2022-10-08T13:00:05.251Z,1015.4
2022-10-08T13:01:05.401Z,1015.4
2022-10-08T13:02:05.306Z,1015.4
2022-10-08T13:03:05.264Z,1015.5
2022-10-08T13:04:05.266Z,1015.5
2022-10-08T13:05:05.255Z,1015.5
2022-10-08T13:06:05.256Z,1015.5
2022-10-08T13:07:05.271Z,1015.5
2022-10-08T13:08:05.258Z,1015.5
2022-10-08T13:09:05.342Z,1015.5
2022-10-08T13:10:05.442Z,1015.6
2022-10-08T13:11:05.259Z,1015.6
2022-10-08T13:12:05.295Z,1015.6
2022-10-08T13:13:05.260Z,1015.6
2022-10-08T13:14:05.443Z,1015.6
2022-10-08T13:15:05.256Z,1015.6
2022-10-08T13:17:05.253Z,1015.7
2022-10-08T13:18:05.278Z,1015.7
2022-10-08T13:19:05.273Z,1015.7
2022-10-08T13:20:05.278Z,1015.7
2022-10-08T13:21:05.262Z,1015.6
2022-10-08T13:22:05.252Z,1015.6
2022-10-08T13:23:10.158Z,1015.7
2022-10-08T13:24:05.254Z,1015.7
2022-10-08T13:25:05.272Z,1015.6
2022-10-08T13:26:05.263Z,1015.7